sensor_id;sensor_type;location;lat;lon;timestamp;pressure;altitude;pressure_sealevel;temperature
72336;BMP280;62171;48.446;8.834;2022-07-15T00:01:38;97845.66;;;15.97
72336;BMP280;62171;48.446;8.834;2022-07-15T00:04:04;97835.44;;;15.99
72336;BMP280;62171;48.446;8.834;2022-07-15T00:06:29;97849.41;;;15.96
72336;BMP280;62171;48.446;8.834;2022-07-15T00:08:55;97843.53;;;15.92
72336;BMP280;62171;48.446;8.834;2022-07-15T00:11:20;97835.84;;;15.85
72336;BMP280;62171;48.446;8.834;2022-07-15T00:13:46;97839.00;;;15.80
72336;BMP280;62171;48.446;8.834;2022-07-15T00:16:11;97842.56;;;15.74
72336;BMP280;62171;48.446;8.834;2022-07-15T00:18:40;97842.44;;;15.77
72336;BMP280;62171;48.446;8.834;2022-07-15T00:21:06;97836.69;;;15.70
72336;BMP280;62171;48.446;8.834;2022-07-15T00:23:31;97830.84;;;15.66
72336;BMP280;62171;48.446;8.834;2022-07-15T00:25:56;97833.31;;;15.57
72336;BMP280;62171;48.446;8.834;2022-07-15T00:28:22;97834.16;;;15.54
72336;BMP280;62171;48.446;8.834;2022-07-15T00:30:48;97833.94;;;15.48
72336;BMP280;62171;48.446;8.834;2022-07-15T00:33:13;97832.97;;;15.42
72336;BMP280;62171;48.446;8.834;2022-07-15T00:35:38;97840.03;;;15.29
72336;BMP280;62171;48.446;8.834;2022-07-15T00:38:04;97840.84;;;15.13
72336;BMP280;62171;48.446;8.834;2022-07-15T00:40:48;97843.84;;;14.99
72336;BMP280;62171;48.446;8.834;2022-07-15T00:43:15;97846.69;;;14.89
72336;BMP280;62171;48.446;8.834;2022-07-15T00:45:42;97846.41;;;14.87
72336;BMP280;62171;48.446;8.834;2022-07-15T00:48:08;97844.41;;;14.91
72336;BMP280;62171;48.446;8.834;2022-07-15T00:50:33;97849.75;;;14.87
72336;BMP280;62171;48.446;8.834;2022-07-15T00:53:07;97854.91;;;14.91
72336;BMP280;62171;48.446;8.834;2022-07-15T00:55:37;97851.75;;;14.96
72336;BMP280;62171;48.446;8.834;2022-07-15T00:58:04;97852.44;;;14.84
72336;BMP280;62171;48.446;8.834;2022-07-15T01:00:32;97846.25;;;14.62
72336;BMP280;62171;48.446;8.834;2022-07-15T01:02:59;97853.13;;;14.56
72336;BMP280;62171;48.446;8.834;2022-07-15T01:05:25;97855.66;;;14.75
72336;BMP280;62171;48.446;8.834;2022-07-15T01:07:51;97865.94;;;14.82
72336;BMP280;62171;48.446;8.834;2022-07-15T01:10:21;97849.75;;;14.87
72336;BMP280;62171;48.446;8.834;2022-07-15T01:12:48;97854.91;;;14.91
72336;BMP280;62171;48.446;8.834;2022-07-15T01:15:15;97848.84;;;14.94
72336;BMP280;62171;48.446;8.834;2022-07-15T01:17:40;97858.13;;;14.95
72336;BMP280;62171;48.446;8.834;2022-07-15T01:20:07;97853.41;;;14.90
72336;BMP280;62171;48.446;8.834;2022-07-15T01:22:33;97860.22;;;14.87
72336;BMP280;62171;48.446;8.834;2022-07-15T01:24:58;97863.91;;;14.74
72336;BMP280;62171;48.446;8.834;2022-07-15T01:27:24;97863.25;;;14.54
72336;BMP280;62171;48.446;8.834;2022-07-15T01:29:50;97862.44;;;14.40
72336;BMP280;62171;48.446;8.834;2022-07-15T01:32:16;97863.38;;;14.30
72336;BMP280;62171;48.446;8.834;2022-07-15T01:34:41;97864.81;;;14.35
72336;BMP280;62171;48.446;8.834;2022-07-15T01:37:07;97866.84;;;14.43
72336;BMP280;62171;48.446;8.834;2022-07-15T01:39:32;97866.03;;;14.46
72336;BMP280;62171;48.446;8.834;2022-07-15T01:41:58;97859.00;;;14.43
72336;BMP280;62171;48.446;8.834;2022-07-15T01:44:24;97866.09;;;14.43
72336;BMP280;62171;48.446;8.834;2022-07-15T01:46:49;97869.94;;;14.38
72336;BMP280;62171;48.446;8.834;2022-07-15T01:49:15;97867.06;;;14.17
72336;BMP280;62171;48.446;8.834;2022-07-15T01:51:56;97860.22;;;13.87
72336;BMP280;62171;48.446;8.834;2022-07-15T01:54:23;97871.34;;;13.72
72336;BMP280;62171;48.446;8.834;2022-07-15T01:56:50;97868.13;;;13.64
72336;BMP280;62171;48.446;8.834;2022-07-15T01:59:15;97868.06;;;13.68
72336;BMP280;62171;48.446;8.834;2022-07-15T02:01:41;97869.94;;;13.67
72336;BMP280;62171;48.446;8.834;2022-07-15T02:04:08;97877.31;;;13.72
72336;BMP280;62171;48.446;8.834;2022-07-15T02:06:34;97865.38;;;13.71
72336;BMP280;62171;48.446;8.834;2022-07-15T02:08:59;97868.94;;;13.81
72336;BMP280;62171;48.446;8.834;2022-07-15T02:11:25;97863.25;;;13.66
72336;BMP280;62171;48.446;8.834;2022-07-15T02:13:50;97855.53;;;13.39
72336;BMP280;62171;48.446;8.834;2022-07-15T02:16:16;97855.84;;;13.22
72336;BMP280;62171;48.446;8.834;2022-07-15T02:18:41;97858.22;;;13.13
72336;BMP280;62171;48.446;8.834;2022-07-15T02:21:07;97855.63;;;13.13
72336;BMP280;62171;48.446;8.834;2022-07-15T02:23:32;97859.38;;;13.12
72336;BMP280;62171;48.446;8.834;2022-07-15T02:25:58;97855.69;;;13.09
72336;BMP280;62171;48.446;8.834;2022-07-15T02:28:24;97850.13;;;13.07
72336;BMP280;62171;48.446;8.834;2022-07-15T02:30:49;97851.66;;;13.05
72336;BMP280;62171;48.446;8.834;2022-07-15T02:33:15;97853.31;;;12.95
72336;BMP280;62171;48.446;8.834;2022-07-15T02:35:41;97854.25;;;12.85
72336;BMP280;62171;48.446;8.834;2022-07-15T02:38:07;97856.88;;;12.81
72336;BMP280;62171;48.446;8.834;2022-07-15T02:40:32;97857.31;;;12.76
72336;BMP280;62171;48.446;8.834;2022-07-15T02:43:00;97851.66;;;12.58
72336;BMP280;62171;48.446;8.834;2022-07-15T02:45:28;97855.94;;;12.45
72336;BMP280;62171;48.446;8.834;2022-07-15T02:47:54;97852.28;;;12.39
72336;BMP280;62171;48.446;8.834;2022-07-15T02:50:21;97856.38;;;12.40
72336;BMP280;62171;48.446;8.834;2022-07-15T02:52:47;97860.81;;;12.43
72336;BMP280;62171;48.446;8.834;2022-07-15T02:55:13;97859.13;;;12.56
72336;BMP280;62171;48.446;8.834;2022-07-15T02:57:39;97857.56;;;12.62
72336;BMP280;62171;48.446;8.834;2022-07-15T03:00:07;97858.34;;;12.59
72336;BMP280;62171;48.446;8.834;2022-07-15T03:02:33;97855.50;;;12.50
72336;BMP280;62171;48.446;8.834;2022-07-15T03:04:59;97847.69;;;12.50
72336;BMP280;62171;48.446;8.834;2022-07-15T03:07:26;97856.97;;;12.51
72336;BMP280;62171;48.446;8.834;2022-07-15T03:09:52;97858.84;;;12.51
72336;BMP280;62171;48.446;8.834;2022-07-15T03:12:18;97861.38;;;12.54
72336;BMP280;62171;48.446;8.834;2022-07-15T03:14:43;97862.88;;;12.55
72336;BMP280;62171;48.446;8.834;2022-07-15T03:17:08;97866.59;;;12.54
72336;BMP280;62171;48.446;8.834;2022-07-15T03:19:34;97867.31;;;12.58
72336;BMP280;62171;48.446;8.834;2022-07-15T03:21:59;97865.31;;;12.39
72336;BMP280;62171;48.446;8.834;2022-07-15T03:24:25;97874.50;;;12.21
72336;BMP280;62171;48.446;8.834;2022-07-15T03:26:50;97871.00;;;12.04
72336;BMP280;62171;48.446;8.834;2022-07-15T03:29:16;97868.88;;;11.95
72336;BMP280;62171;48.446;8.834;2022-07-15T03:31:42;97871.41;;;11.99
72336;BMP280;62171;48.446;8.834;2022-07-15T03:34:08;97870.66;;;12.02
72336;BMP280;62171;48.446;8.834;2022-07-15T03:36:36;97875.38;;;12.11
72336;BMP280;62171;48.446;8.834;2022-07-15T03:39:03;97877.19;;;12.14
72336;BMP280;62171;48.446;8.834;2022-07-15T03:41:28;97876.34;;;12.24
72336;BMP280;62171;48.446;8.834;2022-07-15T03:43:54;97873.69;;;12.27
72336;BMP280;62171;48.446;8.834;2022-07-15T03:46:19;97874.75;;;12.30
72336;BMP280;62171;48.446;8.834;2022-07-15T03:48:45;97872.91;;;12.30
72336;BMP280;62171;48.446;8.834;2022-07-15T03:51:10;97881.00;;;12.36
72336;BMP280;62171;48.446;8.834;2022-07-15T03:53:35;97874.63;;;12.40
72336;BMP280;62171;48.446;8.834;2022-07-15T03:56:01;97884.22;;;12.47
72336;BMP280;62171;48.446;8.834;2022-07-15T03:58:26;97879.41;;;12.45
72336;BMP280;62171;48.446;8.834;2022-07-15T04:00:51;97871.28;;;12.40
72336;BMP280;62171;48.446;8.834;2022-07-15T04:03:17;97866.81;;;12.40
72336;BMP280;62171;48.446;8.834;2022-07-15T04:05:43;97871.28;;;12.40
72336;BMP280;62171;48.446;8.834;2022-07-15T04:08:09;97873.56;;;12.38
72336;BMP280;62171;48.446;8.834;2022-07-15T04:10:35;97882.44;;;12.40
72336;BMP280;62171;48.446;8.834;2022-07-15T04:13:00;97887.91;;;12.49
72336;BMP280;62171;48.446;8.834;2022-07-15T04:15:26;97890.97;;;12.44
72336;BMP280;62171;48.446;8.834;2022-07-15T04:17:51;97888.78;;;12.39
72336;BMP280;62171;48.446;8.834;2022-07-15T04:20:17;97880.13;;;12.46
72336;BMP280;62171;48.446;8.834;2022-07-15T04:22:44;97889.88;;;12.42
72336;BMP280;62171;48.446;8.834;2022-07-15T04:25:11;97892.44;;;12.45
72336;BMP280;62171;48.446;8.834;2022-07-15T04:27:39;97886.78;;;12.50
72336;BMP280;62171;48.446;8.834;2022-07-15T04:30:05;97891.94;;;12.54
72336;BMP280;62171;48.446;8.834;2022-07-15T04:32:31;97893.81;;;12.53
72336;BMP280;62171;48.446;8.834;2022-07-15T04:34:57;97897.88;;;12.54
72336;BMP280;62171;48.446;8.834;2022-07-15T04:37:22;97895.28;;;12.54
72336;BMP280;62171;48.446;8.834;2022-07-15T04:39:48;97892.94;;;12.63
72336;BMP280;62171;48.446;8.834;2022-07-15T04:42:14;97891.06;;;12.64
72336;BMP280;62171;48.446;8.834;2022-07-15T04:44:39;97899.63;;;12.64
72336;BMP280;62171;48.446;8.834;2022-07-15T04:47:04;97897.00;;;12.64
72336;BMP280;62171;48.446;8.834;2022-07-15T04:49:30;97885.78;;;12.67
72336;BMP280;62171;48.446;8.834;2022-07-15T04:52:15;97897.56;;;12.79
72336;BMP280;62171;48.446;8.834;2022-07-15T04:54:40;97895.28;;;12.81
72336;BMP280;62171;48.446;8.834;2022-07-15T04:57:06;97903.44;;;12.83
72336;BMP280;62171;48.446;8.834;2022-07-15T04:59:31;97898.22;;;12.83
72336;BMP280;62171;48.446;8.834;2022-07-15T05:01:58;97904.19;;;12.83
72336;BMP280;62171;48.446;8.834;2022-07-15T05:04:23;97900.34;;;12.92
72336;BMP280;62171;48.446;8.834;2022-07-15T05:06:49;97894.34;;;12.95
72336;BMP280;62171;48.446;8.834;2022-07-15T05:09:14;97896.94;;;12.95
72336;BMP280;62171;48.446;8.834;2022-07-15T05:11:39;97902.16;;;12.95
72336;BMP280;62171;48.446;8.834;2022-07-15T05:14:05;97897.97;;;13.01
72336;BMP280;62171;48.446;8.834;2022-07-15T05:16:30;97898.56;;;13.08
72336;BMP280;62171;48.446;8.834;2022-07-15T05:18:56;97901.53;;;13.10
72336;BMP280;62171;48.446;8.834;2022-07-15T05:21:21;97904.81;;;13.14
72336;BMP280;62171;48.446;8.834;2022-07-15T05:23:47;97893.53;;;13.21
72336;BMP280;62171;48.446;8.834;2022-07-15T05:26:12;97900.50;;;13.27
72336;BMP280;62171;48.446;8.834;2022-07-15T05:28:38;97905.88;;;13.40
72336;BMP280;62171;48.446;8.834;2022-07-15T05:31:05;97902.63;;;13.55
72336;BMP280;62171;48.446;8.834;2022-07-15T05:33:30;97904.25;;;13.69
72336;BMP280;62171;48.446;8.834;2022-07-15T05:35:55;97904.06;;;13.76
72336;BMP280;62171;48.446;8.834;2022-07-15T05:38:21;97908.00;;;13.88
72336;BMP280;62171;48.446;8.834;2022-07-15T05:40:46;97901.72;;;14.01
72336;BMP280;62171;48.446;8.834;2022-07-15T05:43:12;97908.81;;;14.20
72336;BMP280;62171;48.446;8.834;2022-07-15T05:45:37;97903.94;;;14.38
72336;BMP280;62171;48.446;8.834;2022-07-15T05:48:03;97899.41;;;14.59
72336;BMP280;62171;48.446;8.834;2022-07-15T05:50:28;97901.50;;;14.80
72336;BMP280;62171;48.446;8.834;2022-07-15T05:52:53;97896.91;;;15.00
72336;BMP280;62171;48.446;8.834;2022-07-15T05:55:19;97910.31;;;15.18
72336;BMP280;62171;48.446;8.834;2022-07-15T05:57:45;97916.59;;;15.20
72336;BMP280;62171;48.446;8.834;2022-07-15T06:00:11;97907.53;;;15.25
72336;BMP280;62171;48.446;8.834;2022-07-15T06:02:37;97914.69;;;15.37
72336;BMP280;62171;48.446;8.834;2022-07-15T06:05:02;97916.91;;;15.51
72336;BMP280;62171;48.446;8.834;2022-07-15T06:07:28;97912.81;;;15.66
72336;BMP280;62171;48.446;8.834;2022-07-15T06:09:53;97906.97;;;15.87
72336;BMP280;62171;48.446;8.834;2022-07-15T06:12:18;97912.16;;;16.03
72336;BMP280;62171;48.446;8.834;2022-07-15T06:14:44;97907.28;;;16.14
72336;BMP280;62171;48.446;8.834;2022-07-15T06:17:09;97910.66;;;16.15
72336;BMP280;62171;48.446;8.834;2022-07-15T06:19:35;97913.09;;;16.22
72336;BMP280;62171;48.446;8.834;2022-07-15T06:22:00;97910.97;;;16.30
72336;BMP280;62171;48.446;8.834;2022-07-15T06:24:26;97892.41;;;16.37
72336;BMP280;62171;48.446;8.834;2022-07-15T06:26:51;97902.25;;;16.45
72336;BMP280;62171;48.446;8.834;2022-07-15T06:29:17;97905.91;;;16.48
72336;BMP280;62171;48.446;8.834;2022-07-15T06:31:43;97906.34;;;16.46
72336;BMP280;62171;48.446;8.834;2022-07-15T06:34:08;97900.81;;;16.44
72336;BMP280;62171;48.446;8.834;2022-07-15T06:36:34;97893.75;;;16.41
72336;BMP280;62171;48.446;8.834;2022-07-15T06:38:59;97897.44;;;16.44
72336;BMP280;62171;48.446;8.834;2022-07-15T06:41:24;97903.16;;;16.51
72336;BMP280;62171;48.446;8.834;2022-07-15T06:43:50;97899.19;;;16.59
72336;BMP280;62171;48.446;8.834;2022-07-15T06:46:16;97896.97;;;16.70
72336;BMP280;62171;48.446;8.834;2022-07-15T06:48:42;97891.66;;;16.83
72336;BMP280;62171;48.446;8.834;2022-07-15T06:51:08;97901.72;;;16.97
72336;BMP280;62171;48.446;8.834;2022-07-15T06:53:33;97896.09;;;17.07
72336;BMP280;62171;48.446;8.834;2022-07-15T06:55:59;97887.13;;;17.17
72336;BMP280;62171;48.446;8.834;2022-07-15T06:58:24;97893.19;;;17.27
72336;BMP280;62171;48.446;8.834;2022-07-15T07:00:50;97883.19;;;17.35
72336;BMP280;62171;48.446;8.834;2022-07-15T07:03:15;97882.81;;;17.45
72336;BMP280;62171;48.446;8.834;2022-07-15T07:05:40;97888.69;;;17.49
72336;BMP280;62171;48.446;8.834;2022-07-15T07:08:06;97879.22;;;17.61
72336;BMP280;62171;48.446;8.834;2022-07-15T07:10:32;97872.75;;;17.74
72336;BMP280;62171;48.446;8.834;2022-07-15T07:12:58;97875.53;;;17.80
72336;BMP280;62171;48.446;8.834;2022-07-15T07:15:23;97877.47;;;17.88
72336;BMP280;62171;48.446;8.834;2022-07-15T07:17:50;97864.47;;;17.94
72336;BMP280;62171;48.446;8.834;2022-07-15T07:20:16;97865.53;;;18.05
72336;BMP280;62171;48.446;8.834;2022-07-15T07:22:41;97871.44;;;18.19
72336;BMP280;62171;48.446;8.834;2022-07-15T07:25:07;97863.56;;;18.37
72336;BMP280;62171;48.446;8.834;2022-07-15T07:27:33;97857.56;;;18.45
72336;BMP280;62171;48.446;8.834;2022-07-15T07:29:58;97857.59;;;18.63
72336;BMP280;62171;48.446;8.834;2022-07-15T07:32:26;97864.47;;;18.88
72336;BMP280;62171;48.446;8.834;2022-07-15T07:34:52;97855.69;;;19.00
72336;BMP280;62171;48.446;8.834;2022-07-15T07:37:17;97863.88;;;19.11
72336;BMP280;62171;48.446;8.834;2022-07-15T07:39:43;97859.16;;;19.24
72336;BMP280;62171;48.446;8.834;2022-07-15T07:42:08;97858.84;;;19.31
72336;BMP280;62171;48.446;8.834;2022-07-15T07:44:34;97850.34;;;19.36
72336;BMP280;62171;48.446;8.834;2022-07-15T07:46:59;97862.47;;;19.52
72336;BMP280;62171;48.446;8.834;2022-07-15T07:49:25;97853.94;;;19.57
72336;BMP280;62171;48.446;8.834;2022-07-15T07:51:51;97854.94;;;19.68
72336;BMP280;62171;48.446;8.834;2022-07-15T07:54:17;97844.59;;;19.79
72336;BMP280;62171;48.446;8.834;2022-07-15T07:56:42;97848.22;;;19.91
72336;BMP280;62171;48.446;8.834;2022-07-15T07:59:10;97843.00;;;20.05
72336;BMP280;62171;48.446;8.834;2022-07-15T08:01:36;97846.50;;;20.11
72336;BMP280;62171;48.446;8.834;2022-07-15T08:04:01;97838.59;;;20.11
72336;BMP280;62171;48.446;8.834;2022-07-15T08:06:27;97841.75;;;20.15
72336;BMP280;62171;48.446;8.834;2022-07-15T08:08:52;97828.44;;;20.34
72336;BMP280;62171;48.446;8.834;2022-07-15T08:11:18;97840.13;;;20.42
72336;BMP280;62171;48.446;8.834;2022-07-15T08:13:45;97840.94;;;20.48
72336;BMP280;62171;48.446;8.834;2022-07-15T08:16:11;97840.34;;;20.53
72336;BMP280;62171;48.446;8.834;2022-07-15T08:18:36;97836.69;;;20.79
72336;BMP280;62171;48.446;8.834;2022-07-15T08:21:02;97844.47;;;20.97
72336;BMP280;62171;48.446;8.834;2022-07-15T08:23:29;97841.91;;;21.03
72336;BMP280;62171;48.446;8.834;2022-07-15T08:25:54;97842.16;;;21.19
72336;BMP280;62171;48.446;8.834;2022-07-15T08:28:20;97841.41;;;21.48
72336;BMP280;62171;48.446;8.834;2022-07-15T08:30:46;97835.22;;;21.37
72336;BMP280;62171;48.446;8.834;2022-07-15T08:33:12;97836.16;;;21.68
72336;BMP280;62171;48.446;8.834;2022-07-15T08:35:38;97841.06;;;21.95
72336;BMP280;62171;48.446;8.834;2022-07-15T08:38:06;97845.63;;;21.95
72336;BMP280;62171;48.446;8.834;2022-07-15T08:40:33;97841.34;;;21.97
72336;BMP280;62171;48.446;8.834;2022-07-15T08:42:58;97842.00;;;21.92
72336;BMP280;62171;48.446;8.834;2022-07-15T08:45:24;97833.00;;;22.04
72336;BMP280;62171;48.446;8.834;2022-07-15T08:47:51;97831.25;;;22.21
72336;BMP280;62171;48.446;8.834;2022-07-15T08:50:17;97827.66;;;22.44
72336;BMP280;62171;48.446;8.834;2022-07-15T08:52:45;97834.16;;;22.43
72336;BMP280;62171;48.446;8.834;2022-07-15T08:55:12;97831.81;;;22.51
72336;BMP280;62171;48.446;8.834;2022-07-15T08:57:38;97834.50;;;22.57
72336;BMP280;62171;48.446;8.834;2022-07-15T09:00:04;97832.63;;;22.63
72336;BMP280;62171;48.446;8.834;2022-07-15T09:02:36;97837.53;;;22.70
72336;BMP280;62171;48.446;8.834;2022-07-15T09:10:16;97829.41;;;22.79
72336;BMP280;62171;48.446;8.834;2022-07-15T09:12:41;97835.97;;;22.83
72336;BMP280;62171;48.446;8.834;2022-07-15T09:15:07;97833.72;;;23.02
72336;BMP280;62171;48.446;8.834;2022-07-15T09:17:33;97835.03;;;23.23
72336;BMP280;62171;48.446;8.834;2022-07-15T09:20:09;97838.97;;;23.33
72336;BMP280;62171;48.446;8.834;2022-07-15T09:22:54;97835.56;;;23.27
72336;BMP280;62171;48.446;8.834;2022-07-15T09:25:21;97839.91;;;23.30
72336;BMP280;62171;48.446;8.834;2022-07-15T09:27:47;97836.53;;;23.29
72336;BMP280;62171;48.446;8.834;2022-07-15T09:30:17;97833.09;;;23.60
72336;BMP280;62171;48.446;8.834;2022-07-15T09:33:14;97835.97;;;23.62
72336;BMP280;62171;48.446;8.834;2022-07-15T09:38:32;97839.19;;;23.77
72336;BMP280;62171;48.446;8.834;2022-07-15T09:40:58;97841.16;;;23.82
72336;BMP280;62171;48.446;8.834;2022-07-15T09:43:23;97845.56;;;23.96
72336;BMP280;62171;48.446;8.834;2022-07-15T09:46:00;97832.28;;;23.96
72336;BMP280;62171;48.446;8.834;2022-07-15T09:48:27;97842.66;;;24.05
72336;BMP280;62171;48.446;8.834;2022-07-15T09:50:58;97839.47;;;23.90
72336;BMP280;62171;48.446;8.834;2022-07-15T09:53:24;97830.88;;;24.01
72336;BMP280;62171;48.446;8.834;2022-07-15T09:55:50;97830.19;;;24.11
72336;BMP280;62171;48.446;8.834;2022-07-15T09:58:17;97828.25;;;24.39
72336;BMP280;62171;48.446;8.834;2022-07-15T10:00:43;97828.78;;;24.54
72336;BMP280;62171;48.446;8.834;2022-07-15T10:03:09;97831.44;;;24.65
72336;BMP280;62171;48.446;8.834;2022-07-15T10:05:35;97820.31;;;24.50
72336;BMP280;62171;48.446;8.834;2022-07-15T10:08:02;97816.97;;;24.66
72336;BMP280;62171;48.446;8.834;2022-07-15T10:10:29;97825.13;;;25.01
72336;BMP280;62171;48.446;8.834;2022-07-15T10:13:16;97823.91;;;25.02
72336;BMP280;62171;48.446;8.834;2022-07-15T10:15:58;97817.38;;;25.20
72336;BMP280;62171;48.446;8.834;2022-07-15T10:29:30;97800.19;;;25.84
72336;BMP280;62171;48.446;8.834;2022-07-15T10:32:00;97806.78;;;26.12
72336;BMP280;62171;48.446;8.834;2022-07-15T10:34:33;97797.59;;;26.43
72336;BMP280;62171;48.446;8.834;2022-07-15T10:37:01;97794.06;;;26.29
72336;BMP280;62171;48.446;8.834;2022-07-15T10:42:15;97791.81;;;26.09
72336;BMP280;62171;48.446;8.834;2022-07-15T10:47:24;97783.91;;;26.28
72336;BMP280;62171;48.446;8.834;2022-07-15T10:49:50;97778.53;;;26.63
72336;BMP280;62171;48.446;8.834;2022-07-15T10:52:29;97778.59;;;26.82
72336;BMP280;62171;48.446;8.834;2022-07-15T10:57:20;97768.63;;;26.58
72336;BMP280;62171;48.446;8.834;2022-07-15T10:59:52;97769.00;;;26.92
72336;BMP280;62171;48.446;8.834;2022-07-15T11:02:20;97767.38;;;27.07
72336;BMP280;62171;48.446;8.834;2022-07-15T11:04:47;97759.63;;;27.28
72336;BMP280;62171;48.446;8.834;2022-07-15T11:09:53;97758.59;;;27.68
72336;BMP280;62171;48.446;8.834;2022-07-15T11:15:21;97755.22;;;28.31
72336;BMP280;62171;48.446;8.834;2022-07-15T11:17:50;97746.38;;;28.36
72336;BMP280;62171;48.446;8.834;2022-07-15T11:20:20;97746.78;;;28.27
72336;BMP280;62171;48.446;8.834;2022-07-15T11:22:54;97748.25;;;28.67
72336;BMP280;62171;48.446;8.834;2022-07-15T11:25:27;97753.03;;;28.29
72336;BMP280;62171;48.446;8.834;2022-07-15T11:28:10;97740.41;;;29.08
72336;BMP280;62171;48.446;8.834;2022-07-15T11:30:45;97727.84;;;29.57
72336;BMP280;62171;48.446;8.834;2022-07-15T11:33:29;97728.47;;;29.83
72336;BMP280;62171;48.446;8.834;2022-07-15T11:36:00;97745.69;;;30.16
72336;BMP280;62171;48.446;8.834;2022-07-15T11:38:47;97752.38;;;29.61
72336;BMP280;62171;48.446;8.834;2022-07-15T11:41:11;97738.94;;;29.74
72336;BMP280;62171;48.446;8.834;2022-07-15T11:46:47;97738.81;;;29.79
72336;BMP280;62171;48.446;8.834;2022-07-15T11:51:59;97734.69;;;30.55
72336;BMP280;62171;48.446;8.834;2022-07-15T11:54:25;97727.09;;;31.77
72336;BMP280;62171;48.446;8.834;2022-07-15T11:56:55;97729.22;;;31.86
72336;BMP280;62171;48.446;8.834;2022-07-15T11:59:20;97728.53;;;31.56
72336;BMP280;62171;48.446;8.834;2022-07-15T12:01:46;97727.91;;;31.27
72336;BMP280;62171;48.446;8.834;2022-07-15T12:04:11;97719.75;;;31.85
72336;BMP280;62171;48.446;8.834;2022-07-15T12:06:36;97726.38;;;31.54
72336;BMP280;62171;48.446;8.834;2022-07-15T12:09:04;97727.34;;;31.06
72336;BMP280;62171;48.446;8.834;2022-07-15T12:11:38;97733.53;;;31.89
72336;BMP280;62171;48.446;8.834;2022-07-15T12:19:02;97729.56;;;34.41
72336;BMP280;62171;48.446;8.834;2022-07-15T12:21:28;97730.81;;;36.13
72336;BMP280;62171;48.446;8.834;2022-07-15T12:24:14;97725.50;;;36.43
72336;BMP280;62171;48.446;8.834;2022-07-15T12:27:03;97719.75;;;38.04
72336;BMP280;62171;48.446;8.834;2022-07-15T12:29:31;97735.63;;;37.65
72336;BMP280;62171;48.446;8.834;2022-07-15T12:31:58;97722.56;;;40.59
72336;BMP280;62171;48.446;8.834;2022-07-15T12:37:13;97717.72;;;40.17
72336;BMP280;62171;48.446;8.834;2022-07-15T12:39:54;97715.09;;;37.20
72336;BMP280;62171;48.446;8.834;2022-07-15T12:42:20;97719.34;;;35.29
72336;BMP280;62171;48.446;8.834;2022-07-15T12:44:45;97737.53;;;33.88
72336;BMP280;62171;48.446;8.834;2022-07-15T12:47:15;97737.81;;;36.75
72336;BMP280;62171;48.446;8.834;2022-07-15T12:52:28;97723.34;;;37.85
72336;BMP280;62171;48.446;8.834;2022-07-15T12:54:55;97734.66;;;39.41
72336;BMP280;62171;48.446;8.834;2022-07-15T12:57:35;97706.81;;;38.37
72336;BMP280;62171;48.446;8.834;2022-07-15T13:00:11;97717.72;;;38.71
72336;BMP280;62171;48.446;8.834;2022-07-15T13:02:58;97718.53;;;41.43
72336;BMP280;62171;48.446;8.834;2022-07-15T13:05:25;97727.94;;;41.40
72336;BMP280;62171;48.446;8.834;2022-07-15T13:07:51;97724.81;;;42.06
72336;BMP280;62171;48.446;8.834;2022-07-15T13:10:16;97730.16;;;42.50
72336;BMP280;62171;48.446;8.834;2022-07-15T13:12:42;97725.72;;;43.99
72336;BMP280;62171;48.446;8.834;2022-07-15T13:15:08;97724.31;;;44.36
72336;BMP280;62171;48.446;8.834;2022-07-15T13:17:33;97713.56;;;41.69
72336;BMP280;62171;48.446;8.834;2022-07-15T13:20:00;97710.53;;;37.97
72336;BMP280;62171;48.446;8.834;2022-07-15T13:22:26;97703.09;;;36.43
72336;BMP280;62171;48.446;8.834;2022-07-15T13:24:54;97733.59;;;35.39
72336;BMP280;62171;48.446;8.834;2022-07-15T13:27:19;97731.06;;;35.50
72336;BMP280;62171;48.446;8.834;2022-07-15T13:29:45;97717.88;;;36.02
72336;BMP280;62171;48.446;8.834;2022-07-15T13:32:10;97731.84;;;35.89
72336;BMP280;62171;48.446;8.834;2022-07-15T13:34:35;97723.78;;;36.38
72336;BMP280;62171;48.446;8.834;2022-07-15T13:37:01;97720.75;;;38.54
72336;BMP280;62171;48.446;8.834;2022-07-15T13:39:26;97723.63;;;40.14
72336;BMP280;62171;48.446;8.834;2022-07-15T13:41:51;97725.75;;;42.12
72336;BMP280;62171;48.446;8.834;2022-07-15T13:44:17;97721.56;;;40.93
72336;BMP280;62171;48.446;8.834;2022-07-15T13:46:42;97724.44;;;40.16
72336;BMP280;62171;48.446;8.834;2022-07-15T13:49:08;97718.75;;;41.63
72336;BMP280;62171;48.446;8.834;2022-07-15T13:51:33;97717.84;;;41.00
72336;BMP280;62171;48.446;8.834;2022-07-15T13:53:58;97711.75;;;41.44
72336;BMP280;62171;48.446;8.834;2022-07-15T13:56:24;97724.31;;;41.80
72336;BMP280;62171;48.446;8.834;2022-07-15T13:58:50;97718.22;;;43.62
72336;BMP280;62171;48.446;8.834;2022-07-15T14:01:16;97713.44;;;44.00
72336;BMP280;62171;48.446;8.834;2022-07-15T14:03:41;97717.16;;;44.08
72336;BMP280;62171;48.446;8.834;2022-07-15T14:06:07;97720.28;;;43.44
72336;BMP280;62171;48.446;8.834;2022-07-15T14:08:34;97720.03;;;42.06
72336;BMP280;62171;48.446;8.834;2022-07-15T14:10:59;97721.53;;;42.25
72336;BMP280;62171;48.446;8.834;2022-07-15T14:13:25;97724.50;;;41.84
72336;BMP280;62171;48.446;8.834;2022-07-15T14:15:51;97725.59;;;42.24
72336;BMP280;62171;48.446;8.834;2022-07-15T14:18:16;97717.75;;;40.44
72336;BMP280;62171;48.446;8.834;2022-07-15T14:20:41;97728.00;;;39.94
72336;BMP280;62171;48.446;8.834;2022-07-15T14:23:11;97727.16;;;41.82
72336;BMP280;62171;48.446;8.834;2022-07-15T14:25:36;97727.78;;;42.43
72336;BMP280;62171;48.446;8.834;2022-07-15T14:28:02;97714.50;;;41.89
72336;BMP280;62171;48.446;8.834;2022-07-15T14:30:27;97725.56;;;42.08
72336;BMP280;62171;48.446;8.834;2022-07-15T14:32:52;97729.66;;;40.78
72336;BMP280;62171;48.446;8.834;2022-07-15T14:35:18;97726.91;;;40.91
72336;BMP280;62171;48.446;8.834;2022-07-15T14:37:44;97728.56;;;41.83
72336;BMP280;62171;48.446;8.834;2022-07-15T14:40:09;97724.19;;;41.47
72336;BMP280;62171;48.446;8.834;2022-07-15T14:42:35;97723.25;;;42.65
72336;BMP280;62171;48.446;8.834;2022-07-15T14:45:01;97714.09;;;41.81
72336;BMP280;62171;48.446;8.834;2022-07-15T14:47:27;97717.13;;;42.02
72336;BMP280;62171;48.446;8.834;2022-07-15T14:49:52;97717.13;;;42.33
72336;BMP280;62171;48.446;8.834;2022-07-15T14:52:18;97702.47;;;41.65
72336;BMP280;62171;48.446;8.834;2022-07-15T14:54:43;97712.28;;;41.70
72336;BMP280;62171;48.446;8.834;2022-07-15T14:57:09;97713.09;;;42.03